createdAt,value
2017-12-27T00:03:52.018Z,63.95
2017-12-27T00:08:30.665Z,63.89
2017-12-27T00:13:10.480Z,63.52
2017-12-27T00:17:48.603Z,63.40
2017-12-27T00:22:28.372Z,62.95
2017-12-27T00:25:04.443Z,62.66
2017-12-27T00:29:41.891Z,63.05
2017-12-27T00:32:16.027Z,62.50
2017-12-27T00:34:50.326Z,62.83
2017-12-27T00:40:02.161Z,62.11
2017-12-27T00:42:33.014Z,62.12
2017-12-27T00:45:05.987Z,61.78
2017-12-27T00:47:36.997Z,62.15
2017-12-27T00:50:07.272Z,62.12
2017-12-27T00:52:37.711Z,62.32
2017-12-27T00:55:08.649Z,62.37
2017-12-27T00:57:38.884Z,62.56
2017-12-27T01:00:28.180Z,62.59
2017-12-27T01:02:58.604Z,62.52
2017-12-27T01:05:31.240Z,62.72
2017-12-27T01:08:01.757Z,62.40
2017-12-27T01:10:32.200Z,62.34
2017-12-27T01:13:02.517Z,62.59
2017-12-27T01:15:33.970Z,62.69
2017-12-27T01:18:04.417Z,62.79
2017-12-27T01:20:35.630Z,63.13
2017-12-27T01:23:05.984Z,62.62
2017-12-27T01:25:36.262Z,62.28
2017-12-27T01:28:06.423Z,62.27
2017-12-27T01:30:37.141Z,62.52
2017-12-27T01:33:09.059Z,62.28
2017-12-27T01:35:41.471Z,62.62
2017-12-27T01:38:11.774Z,61.93
2017-12-27T01:40:42.202Z,62.46
2017-12-27T01:43:12.562Z,62.81
2017-12-27T01:45:43.563Z,62.08
2017-12-27T01:48:17.444Z,61.91
2017-12-27T01:50:48.382Z,62.23
2017-12-27T01:53:21.003Z,61.86
2017-12-27T01:55:52.132Z,61.37
2017-12-27T01:58:22.581Z,60.96
2017-12-27T02:00:53.295Z,60.88
2017-12-27T02:03:23.906Z,61.04
2017-12-27T02:06:04.416Z,61.06
2017-12-27T02:08:34.761Z,61.29
2017-12-27T02:11:05.589Z,60.90
2017-12-27T02:13:36.872Z,61.02
2017-12-27T02:16:07.811Z,60.91
2017-12-27T02:18:38.266Z,60.50
2017-12-27T02:21:09.116Z,60.40
2017-12-27T02:23:39.679Z,60.31
2017-12-27T02:26:10.357Z,60.10
2017-12-27T02:28:40.729Z,60.36
2017-12-27T02:31:11.666Z,60.47
2017-12-27T02:33:43.492Z,60.31
2017-12-27T02:36:14.676Z,60.08
2017-12-27T02:38:54.719Z,60.35
2017-12-27T02:41:26.264Z,60.66
2017-12-27T02:43:57.461Z,60.24
2017-12-27T02:46:33.947Z,60.04
2017-12-27T02:49:04.249Z,60.26
2017-12-27T02:51:34.731Z,59.89
2017-12-27T02:54:05.243Z,60.14
2017-12-27T02:56:35.537Z,60.32
2017-12-27T02:59:05.892Z,60.16
2017-12-27T03:01:37.147Z,59.96
2017-12-27T03:04:07.640Z,59.61
2017-12-27T03:06:37.931Z,59.88
2017-12-27T03:09:08.293Z,59.77
2017-12-27T03:11:38.869Z,59.93
2017-12-27T03:14:09.227Z,59.83
2017-12-27T03:16:40.223Z,60.16
2017-12-27T03:19:11.162Z,59.96
2017-12-27T03:21:41.523Z,59.51
2017-12-27T03:24:11.855Z,59.54
2017-12-27T03:26:42.138Z,59.68
2017-12-27T03:29:12.450Z,59.33
2017-12-27T03:31:45.448Z,59.19
2017-12-27T03:34:16.685Z,59.09
2017-12-27T03:36:47.834Z,58.77
2017-12-27T03:39:36.482Z,58.98
2017-12-27T03:42:07.178Z,58.94
2017-12-27T03:44:37.777Z,58.88
2017-12-27T03:47:08.465Z,58.68
2017-12-27T03:49:38.787Z,58.66
2017-12-27T03:52:09.692Z,59.25
2017-12-27T03:54:40.160Z,58.97
2017-12-27T03:57:10.560Z,58.80
2017-12-27T03:59:40.845Z,58.86
2017-12-27T04:02:11.971Z,58.71
2017-12-27T04:04:42.439Z,58.83
2017-12-27T04:07:13.185Z,59.29
2017-12-27T04:09:44.304Z,58.38
2017-12-27T04:12:14.516Z,58.35
2017-12-27T04:14:45.920Z,58.24
2017-12-27T04:17:17.410Z,58.62
2017-12-27T04:19:48.157Z,58.34
2017-12-27T04:22:19.241Z,58.35
2017-12-27T04:24:49.653Z,58.10
2017-12-27T04:27:19.932Z,57.89
2017-12-27T04:29:50.141Z,58.09
2017-12-27T04:32:20.678Z,57.86
2017-12-27T04:34:51.383Z,58.10
2017-12-27T04:37:22.132Z,58.27
2017-12-27T04:39:52.954Z,57.57
2017-12-27T04:42:24.736Z,57.70
2017-12-27T04:44:55.953Z,57.26
2017-12-27T04:47:27.636Z,57.67
2017-12-27T04:49:57.966Z,57.52
2017-12-27T04:52:28.397Z,57.57
2017-12-27T04:55:07.852Z,57.34
2017-12-27T04:57:38.775Z,57.18
2017-12-27T05:00:09.314Z,57.18
2017-12-27T05:02:40.432Z,57.56
2017-12-27T05:05:10.961Z,57.18
2017-12-27T05:07:41.759Z,56.71
2017-12-27T05:10:11.981Z,57.13
2017-12-27T05:12:43.039Z,56.60
2017-12-27T05:15:16.829Z,57.30
2017-12-27T05:17:47.706Z,56.45
2017-12-27T05:20:18.175Z,57.37
2017-12-27T05:22:49.108Z,57.44
2017-12-27T05:25:19.798Z,57.03
2017-12-27T05:27:50.366Z,57.40
2017-12-27T05:30:21.610Z,56.58
2017-12-27T05:32:51.980Z,56.87
2017-12-27T05:35:22.370Z,56.70
2017-12-27T05:37:52.991Z,56.88
2017-12-27T05:40:24.147Z,56.58
2017-12-27T05:42:54.403Z,57.06
2017-12-27T05:45:25.101Z,56.57
2017-12-27T05:47:56.487Z,56.24
2017-12-27T05:50:26.953Z,56.07
2017-12-27T05:52:57.908Z,56.05
2017-12-27T05:55:28.307Z,56.49
2017-12-27T05:57:58.573Z,56.72
2017-12-27T06:00:29.299Z,56.61
2017-12-27T06:02:59.580Z,56.68
2017-12-27T06:05:30.038Z,56.50
2017-12-27T06:08:00.621Z,56.62
2017-12-27T06:10:31.347Z,56.80
2017-12-27T06:13:01.610Z,57.39
2017-12-27T06:15:31.847Z,57.29
2017-12-27T06:18:03.064Z,59.12
2017-12-27T06:20:33.212Z,60.14
2017-12-27T06:23:03.861Z,58.80
2017-12-27T06:25:33.982Z,59.08
2017-12-27T06:28:04.832Z,58.52
2017-12-27T06:30:35.953Z,59.45
2017-12-27T06:33:06.062Z,59.96
2017-12-27T06:35:36.729Z,60.90
2017-12-27T06:38:07.330Z,60.56
2017-12-27T06:40:39.733Z,60.98
2017-12-27T06:43:10.294Z,61.70
2017-12-27T06:45:40.715Z,62.07
2017-12-27T06:48:11.343Z,62.15
2017-12-27T06:50:43.385Z,62.51
2017-12-27T06:53:14.972Z,62.88
2017-12-27T06:55:46.290Z,62.07
2017-12-27T06:58:16.453Z,62.88
2017-12-27T07:00:48.687Z,65.89
2017-12-27T07:03:20.424Z,65.73
2017-12-27T07:05:50.815Z,67.15
2017-12-27T07:08:21.702Z,66.66
2017-12-27T07:10:52.098Z,67.13
2017-12-27T07:13:22.438Z,66.86
2017-12-27T07:15:52.924Z,67.70
2017-12-27T07:18:24.104Z,66.55
2017-12-27T07:20:54.379Z,68.32
2017-12-27T07:23:24.654Z,69.15
2017-12-27T07:26:01.194Z,69.00
2017-12-27T07:28:32.632Z,68.72
2017-12-27T07:31:05.098Z,68.39
2017-12-27T07:33:36.301Z,69.04
2017-12-27T07:36:07.403Z,70.61
2017-12-27T07:38:38.276Z,70.62
2017-12-27T07:41:08.907Z,71.92
2017-12-27T07:43:43.784Z,69.78
2017-12-27T07:46:18.244Z,70.29
2017-12-27T07:48:49.130Z,71.52
2017-12-27T07:51:19.988Z,72.11
2017-12-27T07:53:50.380Z,71.34
2017-12-27T07:56:23.401Z,70.91
2017-12-27T07:58:55.134Z,69.83
2017-12-27T08:01:28.458Z,69.08
2017-12-27T08:03:59.225Z,71.44
2017-12-27T08:06:32.924Z,70.72
2017-12-27T08:09:04.258Z,69.61
2017-12-27T08:11:34.480Z,69.32
2017-12-27T08:14:04.852Z,70.05
2017-12-27T08:16:39.059Z,69.67
2017-12-27T08:19:12.253Z,70.10
2017-12-27T08:21:43.785Z,70.29
2017-12-27T08:24:14.631Z,69.45
2017-12-27T08:26:44.865Z,69.67
2017-12-27T08:29:15.509Z,71.94
2017-12-27T08:31:47.233Z,70.87
2017-12-27T08:34:17.492Z,70.23
2017-12-27T08:36:47.950Z,70.03
2017-12-27T08:39:18.293Z,70.08
2017-12-27T08:41:49.288Z,71.36
2017-12-27T08:44:19.471Z,71.47
2017-12-27T08:46:50.426Z,70.09
2017-12-27T08:49:22.336Z,70.67
2017-12-27T08:51:53.370Z,72.93
2017-12-27T08:54:23.660Z,73.20
2017-12-27T08:56:54.595Z,73.78
2017-12-27T08:59:24.964Z,73.34
2017-12-27T09:01:57.503Z,73.48
2017-12-27T09:04:28.878Z,72.56
2017-12-27T09:06:59.172Z,73.69
2017-12-27T09:09:29.709Z,73.47
2017-12-27T09:11:59.899Z,74.40
2017-12-27T09:14:30.096Z,73.62
2017-12-27T09:17:01.501Z,71.85
2017-12-27T09:19:31.971Z,71.89
2017-12-27T09:22:02.795Z,74.04
2017-12-27T09:24:33.552Z,72.54
2017-12-27T09:27:03.843Z,72.08
2017-12-27T09:29:34.569Z,72.23
2017-12-27T09:32:05.519Z,71.90
2017-12-27T09:34:35.863Z,70.85
2017-12-27T09:37:07.404Z,71.39
2017-12-27T09:39:39.507Z,73.30
2017-12-27T09:42:10.154Z,73.75
2017-12-27T09:44:40.833Z,71.77
2017-12-27T09:47:11.114Z,71.73
2017-12-27T09:49:41.739Z,72.92
2017-12-27T09:52:12.693Z,71.99
2017-12-27T09:54:43.223Z,72.75
2017-12-27T09:57:13.982Z,71.70
2017-12-27T09:59:45.494Z,72.16
2017-12-27T10:02:17.450Z,72.37
2017-12-27T10:04:48.968Z,71.64
2017-12-27T10:07:20.452Z,73.36
2017-12-27T10:09:52.875Z,72.94
2017-12-27T10:12:26.699Z,74.23
2017-12-27T10:14:58.421Z,73.84
2017-12-27T10:17:28.946Z,74.00
2017-12-27T10:20:00.307Z,73.37
2017-12-27T10:22:31.255Z,73.48
2017-12-27T10:25:04.042Z,73.18
2017-12-27T10:27:34.673Z,73.21
2017-12-27T10:30:07.897Z,73.45
2017-12-27T10:32:40.338Z,73.76
2017-12-27T10:35:12.722Z,74.98
2017-12-27T10:37:44.169Z,74.24
2017-12-27T10:40:16.291Z,75.92
2017-12-27T10:42:47.835Z,73.89
2017-12-27T10:45:18.980Z,73.60
2017-12-27T10:47:50.748Z,74.44
2017-12-27T10:50:21.061Z,74.26
2017-12-27T10:52:51.644Z,73.61
2017-12-27T10:55:22.713Z,73.99
2017-12-27T10:57:52.992Z,73.26
2017-12-27T11:00:31.243Z,72.36
2017-12-27T11:03:01.668Z,72.11
2017-12-27T11:05:32.870Z,72.03
2017-12-27T11:08:04.836Z,71.12
2017-12-27T11:10:35.591Z,71.77
2017-12-27T11:13:05.916Z,75.09
2017-12-27T11:15:36.672Z,74.82
2017-12-27T11:18:07.815Z,74.30
2017-12-27T11:20:38.675Z,72.79
2017-12-27T11:26:04.127Z,74.33
2017-12-27T11:28:34.876Z,72.69
2017-12-27T11:31:06.193Z,72.17
2017-12-27T11:33:36.504Z,72.13
2017-12-27T11:36:07.208Z,70.88
2017-12-27T11:38:37.735Z,71.07
2017-12-27T11:41:08.519Z,73.09
2017-12-27T11:43:39.466Z,73.65
2017-12-27T11:46:10.424Z,73.69
2017-12-27T11:48:40.841Z,74.35
2017-12-27T11:51:18.900Z,73.34
2017-12-27T11:53:50.013Z,72.85
2017-12-27T11:56:20.265Z,73.50
2017-12-27T11:58:51.009Z,72.56
2017-12-27T12:01:22.069Z,73.30
2017-12-27T12:03:52.623Z,73.36
2017-12-27T12:06:23.127Z,72.90
2017-12-27T12:09:05.999Z,73.18
2017-12-27T12:11:36.580Z,72.90
2017-12-27T12:14:07.279Z,72.23
2017-12-27T12:16:37.920Z,70.94
2017-12-27T12:19:08.897Z,70.97
2017-12-27T12:21:39.926Z,71.83
2017-12-27T12:24:13.437Z,73.16
2017-12-27T12:26:45.213Z,71.66
2017-12-27T12:29:15.872Z,70.27
2017-12-27T12:31:46.660Z,71.77
2017-12-27T12:34:18.493Z,71.83
2017-12-27T12:37:14.150Z,71.58
2017-12-27T12:39:58.903Z,71.44
2017-12-27T12:42:31.156Z,71.77
2017-12-27T12:45:05.116Z,72.18
2017-12-27T12:47:37.701Z,71.41
2017-12-27T12:50:09.101Z,71.67
2017-12-27T12:52:40.234Z,71.41
2017-12-27T12:55:12.966Z,71.89
2017-12-27T12:57:44.119Z,71.18
2017-12-27T13:00:19.771Z,71.56
2017-12-27T13:02:51.699Z,72.06
2017-12-27T13:05:22.383Z,70.99
2017-12-27T13:07:53.316Z,72.18
2017-12-27T13:10:24.017Z,73.15
2017-12-27T13:12:57.193Z,72.75
2017-12-27T13:15:28.521Z,72.15
2017-12-27T13:17:59.780Z,71.25
2017-12-27T13:20:34.020Z,71.88
2017-12-27T13:23:04.353Z,71.66
2017-12-27T13:25:34.967Z,70.72
2017-12-27T13:28:05.783Z,69.86
2017-12-27T13:30:36.668Z,69.25
2017-12-27T13:33:07.310Z,70.77
2017-12-27T13:35:46.122Z,71.42
2017-12-27T13:38:16.995Z,71.87
2017-12-27T13:40:47.812Z,70.18
2017-12-27T13:43:18.414Z,69.64
2017-12-27T13:45:55.466Z,70.23
2017-12-27T13:48:26.402Z,71.66
2017-12-27T13:50:57.554Z,70.67
2017-12-27T13:53:27.913Z,70.70
2017-12-27T13:55:59.049Z,70.34
2017-12-27T13:58:30.378Z,70.58
2017-12-27T14:01:09.325Z,70.15
2017-12-27T14:03:41.411Z,71.13
2017-12-27T14:06:12.815Z,70.35
2017-12-27T14:08:45.368Z,69.41
2017-12-27T14:11:16.279Z,69.26
2017-12-27T14:13:48.816Z,69.34
2017-12-27T14:16:20.520Z,69.43
2017-12-27T14:18:51.344Z,69.50
2017-12-27T14:21:23.097Z,68.99
2017-12-27T14:23:55.211Z,68.44
2017-12-27T14:26:25.982Z,68.09
2017-12-27T14:28:57.309Z,68.36
2017-12-27T14:31:29.365Z,68.48
2017-12-27T14:34:00.668Z,68.41
2017-12-27T14:36:32.609Z,68.83
2017-12-27T14:39:03.667Z,68.44
2017-12-27T14:41:34.471Z,68.52
2017-12-27T14:44:07.712Z,68.66
2017-12-27T14:46:39.574Z,68.28
2017-12-27T14:49:11.718Z,68.81
2017-12-27T14:51:45.597Z,69.01
2017-12-27T14:54:19.835Z,70.15
2017-12-27T14:56:57.781Z,69.76
2017-12-27T14:59:29.745Z,68.67
2017-12-27T15:02:02.976Z,68.24
2017-12-27T15:04:35.563Z,67.44
2017-12-27T15:07:11.741Z,67.75
2017-12-27T15:09:44.439Z,67.65
2017-12-27T15:12:18.670Z,68.51
2017-12-27T15:14:52.333Z,67.08
2017-12-27T15:17:26.180Z,66.39
2017-12-27T15:20:05.658Z,66.85
2017-12-27T15:22:37.117Z,67.19
2017-12-27T15:25:08.339Z,67.14
2017-12-27T15:27:39.025Z,66.84
2017-12-27T15:30:09.979Z,66.33
2017-12-27T15:32:44.009Z,66.21
2017-12-27T15:35:14.562Z,66.65
2017-12-27T15:37:45.283Z,66.31
2017-12-27T15:40:18.057Z,66.16
2017-12-27T15:42:51.521Z,66.09
2017-12-27T15:45:23.841Z,65.68
2017-12-27T15:47:55.187Z,65.37
2017-12-27T15:50:26.301Z,65.13
2017-12-27T15:52:57.305Z,65.13
2017-12-27T15:55:28.630Z,64.59
2017-12-27T15:58:00.304Z,64.10
2017-12-27T16:00:34.417Z,64.27
2017-12-27T16:03:06.629Z,63.81
2017-12-27T16:05:39.165Z,63.94
2017-12-27T16:08:18.842Z,63.50
2017-12-27T16:10:51.387Z,63.10
2017-12-27T16:13:26.279Z,62.55
2017-12-27T16:16:04.256Z,62.99
2017-12-27T16:18:36.587Z,63.10
2017-12-27T16:21:08.758Z,62.56
2017-12-27T16:23:43.317Z,62.27
2017-12-27T16:26:16.901Z,62.04
2017-12-27T16:28:50.769Z,61.98
2017-12-27T16:31:25.845Z,62.14
2017-12-27T16:33:59.598Z,62.00
2017-12-27T16:36:39.073Z,61.93
2017-12-27T16:39:14.141Z,61.81
2017-12-27T16:41:48.744Z,61.29
2017-12-27T16:44:27.983Z,61.41
2017-12-27T16:47:06.053Z,61.68
2017-12-27T16:49:43.579Z,61.43
2017-12-27T16:52:24.421Z,61.36
2017-12-27T16:54:59.010Z,61.48
2017-12-27T16:58:03.740Z,61.76
2017-12-27T17:00:39.204Z,61.16
2017-12-27T17:03:14.219Z,60.96
2017-12-27T17:05:46.425Z,61.07
2017-12-27T17:08:22.436Z,60.79
2017-12-27T17:11:04.620Z,60.50
2017-12-27T17:13:37.557Z,59.99
2017-12-27T17:16:12.676Z,60.80
2017-12-27T17:18:45.755Z,61.19
2017-12-27T17:21:19.651Z,61.10
2017-12-27T17:23:53.682Z,61.01
2017-12-27T17:26:36.411Z,61.37
2017-12-27T17:29:11.106Z,61.49
2017-12-27T17:31:44.033Z,61.20
2017-12-27T17:34:37.173Z,61.21
2017-12-27T17:37:16.749Z,61.14
2017-12-27T17:39:57.508Z,60.99
2017-12-27T17:42:34.091Z,60.59
2017-12-27T17:45:09.606Z,60.63
2017-12-27T17:47:47.927Z,59.77
2017-12-27T17:50:21.879Z,60.34
2017-12-27T17:52:54.629Z,60.70
2017-12-27T17:55:29.563Z,61.14
2017-12-27T17:58:02.758Z,61.16
2017-12-27T18:00:37.125Z,60.91
2017-12-27T18:03:11.965Z,60.77
2017-12-27T18:05:55.581Z,60.31
2017-12-27T18:08:34.265Z,60.24
2017-12-27T18:13:47.763Z,60.38
2017-12-27T18:16:24.270Z,60.42
2017-12-27T18:18:58.022Z,60.30
2017-12-27T18:21:33.091Z,59.98
2017-12-27T18:24:20.472Z,60.07
2017-12-27T18:26:54.754Z,59.45
2017-12-27T18:29:31.080Z,60.04
2017-12-27T18:32:05.167Z,59.66
2017-12-27T18:34:39.930Z,59.62
2017-12-27T18:37:13.894Z,59.13
2017-12-27T18:39:48.457Z,59.22
2017-12-27T18:42:23.990Z,59.37
2017-12-27T18:44:59.345Z,58.98
2017-12-27T18:47:35.103Z,58.77
2017-12-27T18:50:10.109Z,58.95
2017-12-27T18:52:50.554Z,59.12
2017-12-27T18:55:25.120Z,59.25
2017-12-27T18:57:59.582Z,59.33
2017-12-27T19:00:34.728Z,59.44
2017-12-27T19:03:09.354Z,59.15
2017-12-27T19:05:46.576Z,59.01
2017-12-27T19:08:19.483Z,59.96
2017-12-27T19:10:54.055Z,60.34
2017-12-27T19:13:28.911Z,60.08
2017-12-27T19:16:03.593Z,60.22
2017-12-27T19:18:42.113Z,60.31
2017-12-27T19:21:20.938Z,60.02
2017-12-27T19:24:03.627Z,60.06
2017-12-27T19:26:37.955Z,60.04
2017-12-27T19:29:14.153Z,60.19
2017-12-27T19:31:47.915Z,60.45
2017-12-27T19:34:23.788Z,60.54
2017-12-27T19:37:00.267Z,60.21
2017-12-27T19:39:41.143Z,60.58
2017-12-27T19:42:13.977Z,60.99
2017-12-27T19:44:47.988Z,61.04
2017-12-27T19:47:22.825Z,60.96
2017-12-27T19:49:54.188Z,61.53
2017-12-27T19:52:26.219Z,61.66
2017-12-27T19:54:57.419Z,62.32
2017-12-27T19:57:35.656Z,64.07
2017-12-27T20:02:59.856Z,65.54
2017-12-27T20:05:37.923Z,66.03
2017-12-27T20:08:08.718Z,66.30
2017-12-27T20:10:39.578Z,66.75
2017-12-27T20:13:11.948Z,67.22
2017-12-27T20:15:46.068Z,67.72
2017-12-27T20:18:17.432Z,67.95
2017-12-27T20:20:49.684Z,69.01
2017-12-27T20:26:15.682Z,69.36
2017-12-27T20:28:47.785Z,68.91
2017-12-27T20:31:18.826Z,69.46
2017-12-27T20:33:53.769Z,70.01
2017-12-27T20:36:29.352Z,70.31
2017-12-27T20:39:03.601Z,71.10
2017-12-27T20:44:20.690Z,71.92
2017-12-27T20:46:57.410Z,72.60
2017-12-27T20:49:35.141Z,72.96
2017-12-27T20:52:07.772Z,72.12
2017-12-27T20:54:42.407Z,71.81
2017-12-27T20:57:16.215Z,71.78
2017-12-27T20:59:51.381Z,71.22
2017-12-27T21:02:26.093Z,71.01
2017-12-27T21:05:03.991Z,69.99
2017-12-27T21:07:37.169Z,69.89
2017-12-27T21:10:13.063Z,69.47
2017-12-27T21:12:48.263Z,69.25
2017-12-27T21:15:20.437Z,69.42
2017-12-27T21:17:57.995Z,69.77
2017-12-27T21:20:30.542Z,69.45
2017-12-27T21:23:02.307Z,70.32
2017-12-27T21:25:34.165Z,70.05
2017-12-27T21:28:06.294Z,70.51
2017-12-27T21:30:37.670Z,71.71
2017-12-27T21:33:09.345Z,72.33
2017-12-27T21:35:40.685Z,72.33
2017-12-27T21:38:11.275Z,72.42
2017-12-27T21:40:43.536Z,72.50
2017-12-27T21:43:14.380Z,72.55
2017-12-27T21:45:45.630Z,72.76
2017-12-27T21:48:21.149Z,72.94
2017-12-27T21:50:53.208Z,73.29
2017-12-27T21:53:46.262Z,72.93
2017-12-27T21:56:23.063Z,73.49
2017-12-27T21:59:00.105Z,73.86
2017-12-27T22:01:50.092Z,73.61
2017-12-27T22:04:24.492Z,73.30
2017-12-27T22:06:56.462Z,72.95
2017-12-27T22:09:29.833Z,72.69
2017-12-27T22:12:02.554Z,73.12
2017-12-27T22:14:34.546Z,72.54
2017-12-27T22:17:07.022Z,72.18
2017-12-27T22:19:38.440Z,72.25
2017-12-27T22:22:09.900Z,72.16
2017-12-27T22:24:42.329Z,71.69
2017-12-27T22:27:13.457Z,71.66
2017-12-27T22:29:50.191Z,71.48
2017-12-27T22:32:23.134Z,71.37
2017-12-27T22:35:02.505Z,71.50
2017-12-27T22:37:36.439Z,71.45
2017-12-27T22:40:23.351Z,71.51
2017-12-27T22:42:59.843Z,71.82
2017-12-27T22:45:39.475Z,71.97
2017-12-27T22:48:13.213Z,71.54
2017-12-27T22:50:48.480Z,71.52
2017-12-27T22:53:21.877Z,71.07
2017-12-27T22:55:54.241Z,71.15
2017-12-27T22:58:25.220Z,71.10
2017-12-27T23:00:58.696Z,69.85
2017-12-27T23:03:33.520Z,69.53
2017-12-27T23:06:05.245Z,68.96
2017-12-27T23:08:38.109Z,69.38
2017-12-27T23:11:10.424Z,68.92
2017-12-27T23:13:43.644Z,68.56
2017-12-27T23:16:20.480Z,67.75
2017-12-27T23:18:51.041Z,68.54
2017-12-27T23:21:24.647Z,69.14
2017-12-27T23:24:02.707Z,69.39
2017-12-27T23:26:34.506Z,69.26
2017-12-27T23:29:06.633Z,68.55
2017-12-27T23:31:39.027Z,68.65
2017-12-27T23:34:10.066Z,69.10
2017-12-27T23:36:41.518Z,69.15
2017-12-27T23:39:12.363Z,69.28
2017-12-27T23:41:46.500Z,69.24
2017-12-27T23:44:17.919Z,69.15
2017-12-27T23:46:53.029Z,68.99
2017-12-27T23:49:25.543Z,69.05
2017-12-27T23:51:59.490Z,69.39
2017-12-27T23:54:32.767Z,69.17
2017-12-27T23:57:04.451Z,69.68
2017-12-27T23:59:40.344Z,69.14
